createdAt,value
2023-03-21T00:00:26.038Z,69.63
2023-03-21T00:01:27.755Z,70.20
2023-03-21T00:02:30.007Z,70.31
2023-03-21T00:03:34.039Z,70.10
2023-03-21T00:04:50.672Z,70.30
2023-03-21T00:05:53.949Z,69.89
2023-03-21T00:06:56.017Z,69.92
2023-03-21T00:07:59.554Z,69.85
2023-03-21T00:09:02.943Z,70.24
2023-03-21T00:10:15.429Z,70.61
2023-03-21T00:11:20.679Z,70.27
2023-03-21T00:12:22.602Z,69.64
2023-03-21T00:13:26.607Z,70.06
2023-03-21T00:14:30.743Z,71.08
2023-03-21T00:15:42.550Z,70.50
2023-03-21T00:16:50.848Z,70.47
2023-03-21T00:18:04.386Z,69.99
2023-03-21T00:19:07.526Z,70.86
2023-03-21T00:20:15.371Z,70.26
2023-03-21T00:21:40.914Z,70.26
2023-03-21T00:22:42.302Z,71.12
2023-03-21T00:23:45.884Z,70.75
2023-03-21T00:24:48.366Z,70.87
2023-03-21T00:25:50.297Z,71.39
2023-03-21T00:26:52.280Z,71.05
2023-03-21T00:28:07.567Z,70.65
2023-03-21T00:29:10.183Z,70.88
2023-03-21T00:30:12.761Z,71.24
2023-03-21T00:31:17.190Z,70.67
2023-03-21T00:32:21.310Z,70.84
2023-03-21T00:33:23.185Z,70.61
2023-03-21T00:34:36.894Z,70.13
2023-03-21T00:36:05.712Z,69.95
2023-03-21T00:37:09.395Z,69.43
2023-03-21T00:38:11.399Z,69.07
2023-03-21T00:39:14.222Z,68.74
2023-03-21T00:40:26.581Z,68.91
2023-03-21T00:41:47.662Z,69.14
2023-03-21T00:42:49.585Z,69.14
2023-03-21T00:43:52.065Z,69.31
2023-03-21T00:44:54.004Z,69.60
2023-03-21T00:46:00.802Z,69.53
2023-03-21T00:47:07.340Z,69.89
2023-03-21T00:48:10.763Z,69.62
2023-03-21T00:49:12.809Z,68.76
2023-03-21T00:50:16.394Z,68.58
2023-03-21T00:51:27.207Z,68.68
2023-03-21T00:52:40.142Z,68.98
2023-03-21T00:53:43.076Z,69.11
2023-03-21T00:54:44.923Z,68.95
2023-03-21T00:55:47.378Z,68.34
2023-03-21T00:56:49.818Z,67.85
2023-03-21T00:58:01.315Z,67.77
2023-03-21T00:59:03.837Z,67.88
2023-03-21T01:00:10.674Z,67.75
2023-03-21T01:01:12.938Z,67.65
2023-03-21T01:02:22.731Z,67.66
2023-03-21T01:03:26.624Z,68.00
2023-03-21T01:04:28.871Z,68.24
2023-03-21T01:05:51.352Z,68.82
2023-03-21T01:06:54.594Z,69.40
2023-03-21T01:07:56.812Z,69.50
2023-03-21T01:08:59.393Z,69.15
2023-03-21T01:10:01.278Z,69.85
2023-03-21T01:11:08.160Z,70.38
2023-03-21T01:12:10.663Z,70.18
2023-03-21T01:13:14.310Z,70.57
2023-03-21T01:14:22.944Z,70.69
2023-03-21T01:15:25.073Z,70.80
2023-03-21T01:16:27.535Z,71.21
2023-03-21T01:17:29.459Z,71.53
2023-03-21T01:18:32.456Z,72.13
2023-03-21T01:19:48.748Z,71.74
2023-03-21T01:20:54.862Z,71.66
2023-03-21T01:21:57.567Z,71.66
2023-03-21T01:22:59.660Z,72.01
2023-03-21T01:24:01.782Z,71.88
2023-03-21T01:25:21.075Z,71.28
2023-03-21T01:26:24.028Z,70.62
2023-03-21T01:27:25.966Z,70.87
2023-03-21T01:28:29.549Z,71.02
2023-03-21T01:29:31.573Z,70.52
2023-03-21T01:30:41.605Z,71.05
2023-03-21T01:31:44.190Z,71.77
2023-03-21T01:32:46.123Z,71.93
2023-03-21T01:33:48.173Z,72.49
2023-03-21T01:34:50.811Z,72.01
2023-03-21T01:36:00.293Z,71.70
2023-03-21T01:37:08.392Z,71.42
2023-03-21T01:38:12.761Z,71.80
2023-03-21T01:39:17.462Z,72.28
2023-03-21T01:40:26.076Z,72.95
2023-03-21T01:41:47.760Z,73.20
2023-03-21T01:42:50.620Z,72.80
2023-03-21T01:43:54.655Z,71.73
2023-03-21T01:45:00.661Z,71.09
2023-03-21T01:46:26.261Z,71.33
2023-03-21T01:47:30.114Z,71.05
2023-03-21T01:48:34.137Z,71.72
2023-03-21T01:49:46.048Z,71.64
2023-03-21T01:50:50.179Z,72.35
2023-03-21T01:52:01.124Z,73.35
2023-03-21T01:53:06.906Z,73.59
2023-03-21T01:54:15.368Z,73.51
2023-03-21T01:55:18.980Z,73.55
2023-03-21T01:56:29.361Z,73.73
2023-03-21T01:57:49.236Z,73.69
2023-03-21T01:59:24.929Z,74.46
2023-03-21T02:00:29.548Z,74.01
2023-03-21T02:01:34.846Z,74.91
2023-03-21T02:02:37.602Z,74.26
2023-03-21T02:03:51.027Z,74.32
2023-03-21T02:04:58.343Z,74.57
2023-03-21T02:06:04.953Z,74.46
2023-03-21T02:07:19.425Z,74.64
2023-03-21T02:08:30.573Z,75.14
2023-03-21T02:09:46.475Z,74.74
2023-03-21T02:10:50.675Z,74.15
2023-03-21T02:11:55.962Z,73.92
2023-03-21T02:13:09.344Z,74.63
2023-03-21T02:14:23.396Z,74.31
2023-03-21T02:15:30.831Z,75.33
2023-03-21T02:17:03.093Z,74.77
2023-03-21T02:18:08.004Z,74.04
2023-03-21T02:19:25.958Z,74.28
2023-03-21T02:20:58.582Z,75.52
2023-03-21T02:22:03.988Z,75.69
2023-03-21T02:23:28.870Z,76.44
2023-03-21T02:25:13.368Z,77.34
2023-03-21T02:26:48.199Z,76.53
2023-03-21T02:28:01.304Z,77.05
2023-03-21T02:29:19.012Z,78.62
2023-03-21T02:30:35.442Z,77.99
2023-03-21T02:31:48.231Z,78.41
2023-03-21T02:33:31.654Z,78.16
2023-03-21T02:34:42.826Z,78.27
2023-03-21T02:36:17.779Z,77.69
2023-03-21T02:37:55.233Z,77.67
2023-03-21T02:39:35.992Z,77.05
2023-03-21T02:40:47.449Z,76.84
2023-03-21T02:41:55.319Z,76.68
2023-03-21T02:43:22.555Z,76.64
2023-03-21T02:44:51.696Z,76.45
2023-03-21T02:45:54.221Z,76.21
2023-03-21T02:47:06.367Z,75.83
2023-03-21T02:48:25.525Z,75.84
2023-03-21T02:49:31.593Z,75.33
2023-03-21T02:50:43.684Z,75.38
2023-03-21T02:51:48.432Z,75.90
2023-03-21T02:52:52.343Z,75.64
2023-03-21T02:54:30.319Z,75.50
2023-03-21T02:55:27.515Z,75.48
2023-03-21T02:56:33.649Z,75.41
2023-03-21T02:57:42.548Z,74.87
2023-03-21T02:58:48.129Z,75.00
2023-03-21T02:59:56.904Z,75.20
2023-03-21T03:01:01.165Z,75.21
2023-03-21T03:02:04.390Z,75.21
2023-03-21T03:03:11.398Z,75.14
2023-03-21T03:04:19.529Z,75.34
2023-03-21T03:05:27.907Z,75.37
2023-03-21T03:06:47.225Z,75.04
2023-03-21T03:07:51.971Z,74.67
2023-03-21T03:09:14.691Z,74.97
2023-03-21T03:10:57.948Z,74.82
2023-03-21T03:12:16.519Z,75.02
2023-03-21T03:13:24.354Z,74.84
2023-03-21T03:14:47.101Z,75.05
2023-03-21T03:16:03.171Z,74.99
2023-03-21T03:17:28.364Z,75.11
2023-03-21T03:19:06.934Z,75.16
2023-03-21T03:20:17.518Z,75.08
2023-03-21T03:21:52.783Z,74.98
2023-03-21T03:23:04.016Z,75.11
2023-03-21T03:24:22.868Z,75.08
2023-03-21T03:25:42.170Z,75.02
2023-03-21T03:26:55.617Z,75.01
2023-03-21T03:28:01.475Z,74.79
2023-03-21T03:29:11.969Z,74.86
2023-03-21T03:30:15.272Z,75.02
2023-03-21T03:31:25.972Z,75.32
2023-03-21T03:32:44.863Z,74.91
2023-03-21T03:33:52.263Z,74.79
2023-03-21T03:34:57.020Z,74.79
2023-03-21T03:36:05.523Z,74.97
2023-03-21T03:37:13.541Z,74.90
2023-03-21T03:38:17.345Z,74.92
2023-03-21T03:39:19.605Z,75.00
2023-03-21T03:40:31.700Z,74.52
2023-03-21T03:42:04.246Z,74.28
2023-03-21T03:43:10.413Z,74.53
2023-03-21T03:44:13.157Z,74.17
2023-03-21T03:45:24.500Z,74.23
2023-03-21T03:46:39.970Z,74.07
2023-03-21T03:47:56.447Z,74.15
2023-03-21T03:49:07.933Z,74.01
2023-03-21T03:50:36.913Z,74.19
2023-03-21T03:51:49.949Z,74.10
2023-03-21T03:52:59.814Z,74.68
2023-03-21T03:54:07.978Z,74.39
2023-03-21T03:55:14.464Z,74.00
2023-03-21T03:56:17.463Z,73.93
2023-03-21T03:57:20.711Z,74.01
2023-03-21T03:58:36.172Z,74.38
2023-03-21T03:59:46.858Z,73.79
2023-03-21T04:00:56.057Z,73.45
2023-03-21T04:01:58.424Z,73.72
2023-03-21T04:03:01.291Z,74.02
2023-03-21T04:04:12.524Z,74.13
2023-03-21T04:05:21.100Z,74.10
2023-03-21T04:06:23.116Z,73.89
2023-03-21T04:07:25.930Z,73.71
2023-03-21T04:08:28.152Z,73.80
2023-03-21T04:09:43.243Z,73.91
2023-03-21T04:10:46.885Z,73.96
2023-03-21T04:11:49.733Z,74.14
2023-03-21T04:12:52.010Z,73.96
2023-03-21T04:13:54.848Z,74.29
2023-03-21T04:15:04.910Z,74.21
2023-03-21T04:16:13.107Z,74.13
2023-03-21T04:17:16.260Z,73.90
2023-03-21T04:18:18.766Z,74.05
2023-03-21T04:19:20.959Z,73.50
2023-03-21T04:20:35.584Z,73.72
2023-03-21T04:21:39.567Z,73.71
2023-03-21T04:22:41.983Z,73.78
2023-03-21T04:23:44.199Z,73.96
2023-03-21T04:24:46.148Z,73.68
2023-03-21T04:25:56.423Z,73.80
2023-03-21T04:27:01.338Z,73.73
2023-03-21T04:28:04.191Z,73.86
2023-03-21T04:29:07.758Z,73.83
2023-03-21T04:30:12.234Z,74.27
2023-03-21T04:31:24.941Z,74.24
2023-03-21T04:32:28.391Z,74.76
2023-03-21T04:33:30.741Z,74.84
2023-03-21T04:34:33.101Z,75.18
2023-03-21T04:35:37.637Z,74.90
2023-03-21T04:36:44.567Z,74.43
2023-03-21T04:37:46.705Z,74.55
2023-03-21T04:38:49.126Z,74.37
2023-03-21T04:39:51.738Z,75.28
2023-03-21T04:40:53.710Z,75.24
2023-03-21T04:41:57.034Z,75.40
2023-03-21T04:43:01.272Z,76.01
2023-03-21T04:44:03.532Z,75.83
2023-03-21T04:45:06.923Z,75.85
2023-03-21T04:46:08.801Z,75.78
2023-03-21T04:47:11.144Z,75.65
2023-03-21T04:48:14.532Z,76.16
2023-03-21T04:49:16.608Z,75.96
2023-03-21T04:50:19.094Z,76.58
2023-03-21T04:51:21.020Z,75.93
2023-03-21T04:52:25.244Z,75.18
2023-03-21T04:53:27.417Z,75.50
2023-03-21T04:54:29.383Z,75.56
2023-03-21T04:55:33.156Z,75.46
2023-03-21T04:56:36.353Z,75.25
2023-03-21T04:57:38.787Z,78.27
2023-03-21T04:58:41.838Z,76.72
2023-03-21T04:59:43.832Z,75.87
2023-03-21T05:00:48.005Z,76.02
2023-03-21T05:01:50.359Z,75.69
2023-03-21T05:02:52.259Z,75.75
2023-03-21T05:03:54.108Z,75.90
2023-03-21T05:04:57.473Z,76.02
2023-03-21T05:06:00.120Z,75.38
2023-03-21T05:07:02.041Z,75.75
2023-03-21T05:08:06.265Z,75.67
2023-03-21T05:09:08.855Z,75.60
2023-03-21T05:10:12.435Z,75.85
2023-03-21T05:11:14.949Z,75.26
2023-03-21T05:12:18.546Z,75.26
2023-03-21T05:13:20.849Z,75.81
2023-03-21T05:14:26.482Z,75.62
2023-03-21T05:15:28.560Z,75.77
2023-03-21T05:16:31.265Z,75.86
2023-03-21T05:17:33.678Z,75.66
2023-03-21T05:18:38.743Z,76.20
2023-03-21T05:19:42.651Z,75.41
2023-03-21T05:20:47.151Z,75.57
2023-03-21T05:21:50.468Z,75.21
2023-03-21T05:22:52.856Z,74.72
2023-03-21T05:23:55.283Z,73.79
2023-03-21T05:24:57.802Z,73.42
2023-03-21T05:26:00.627Z,73.46
2023-03-21T05:27:06.603Z,73.26
2023-03-21T05:28:12.446Z,74.00
2023-03-21T05:29:19.475Z,74.21
2023-03-21T05:30:25.311Z,74.03
2023-03-21T05:31:31.762Z,73.71
2023-03-21T05:32:34.978Z,73.49
2023-03-21T05:33:36.873Z,73.86
2023-03-21T05:34:38.783Z,73.74
2023-03-21T05:35:41.024Z,73.72
2023-03-21T05:36:43.663Z,73.16
2023-03-21T05:37:46.434Z,72.52
2023-03-21T05:38:51.375Z,71.84
2023-03-21T05:39:53.586Z,71.19
2023-03-21T05:40:56.292Z,73.58
2023-03-21T05:41:59.424Z,71.41
2023-03-21T05:43:01.900Z,70.92
2023-03-21T05:44:03.822Z,70.83
2023-03-21T05:45:06.548Z,70.54
2023-03-21T05:46:09.442Z,70.80
2023-03-21T05:47:15.863Z,71.24
2023-03-21T05:48:18.852Z,71.34
2023-03-21T05:49:24.541Z,70.81
2023-03-21T05:50:28.263Z,70.01
2023-03-21T05:51:30.874Z,69.92
2023-03-21T05:52:33.026Z,70.04
2023-03-21T05:53:36.270Z,69.90
2023-03-21T05:54:38.187Z,68.65
2023-03-21T05:55:40.439Z,68.38
2023-03-21T05:56:43.423Z,67.92
2023-03-21T05:57:46.300Z,66.19
2023-03-21T05:58:48.680Z,65.08
2023-03-21T05:59:51.064Z,64.60
2023-03-21T06:00:53.530Z,64.58
2023-03-21T06:01:57.088Z,63.22
2023-03-21T06:02:59.124Z,62.98
2023-03-21T06:04:01.623Z,62.55
2023-03-21T06:05:04.290Z,61.95
2023-03-21T06:06:06.909Z,61.21
2023-03-21T06:07:09.611Z,61.11
2023-03-21T06:08:13.821Z,60.74
2023-03-21T06:09:16.108Z,60.18
2023-03-21T06:10:19.906Z,59.45
2023-03-21T06:11:28.912Z,58.75
2023-03-21T06:12:31.990Z,58.81
2023-03-21T06:13:34.531Z,58.40
2023-03-21T06:14:36.695Z,58.73
2023-03-21T06:15:40.372Z,61.79
2023-03-21T06:16:44.354Z,65.59
2023-03-21T06:17:46.680Z,57.31
2023-03-21T06:18:48.741Z,56.10
2023-03-21T06:19:51.994Z,55.97
2023-03-21T06:20:54.786Z,55.84
2023-03-21T06:21:56.868Z,55.25
2023-03-21T06:22:59.315Z,54.77
2023-03-21T06:24:01.213Z,55.16
2023-03-21T06:25:04.832Z,55.63
2023-03-21T06:26:07.733Z,55.36
2023-03-21T06:27:10.497Z,54.56
2023-03-21T06:28:13.736Z,54.73
2023-03-21T06:29:16.033Z,54.20
2023-03-21T06:30:21.330Z,53.35
2023-03-21T06:31:25.226Z,52.95
2023-03-21T06:32:28.230Z,52.81
2023-03-21T06:33:31.130Z,52.95
2023-03-21T06:34:33.296Z,53.02
2023-03-21T06:35:36.046Z,53.46
2023-03-21T06:36:38.677Z,53.19
2023-03-21T06:37:40.730Z,53.63
2023-03-21T06:38:44.557Z,53.35
2023-03-21T06:39:47.069Z,53.13
2023-03-21T06:40:49.720Z,52.97
2023-03-21T06:41:51.839Z,53.17
2023-03-21T06:42:53.807Z,52.93
2023-03-21T06:43:55.961Z,53.06
2023-03-21T06:44:58.418Z,53.22
2023-03-21T06:46:01.355Z,52.52
2023-03-21T06:47:03.486Z,51.27
2023-03-21T06:48:08.719Z,52.11
2023-03-21T06:49:15.853Z,52.41
2023-03-21T06:50:17.955Z,52.04
2023-03-21T06:51:19.929Z,52.36
2023-03-21T06:52:24.550Z,52.08
2023-03-21T06:53:28.265Z,51.84
2023-03-21T06:54:32.310Z,51.62
2023-03-21T06:55:34.549Z,52.22
2023-03-21T06:56:36.611Z,51.80
2023-03-21T06:57:38.690Z,51.54
2023-03-21T06:58:41.785Z,50.75
2023-03-21T06:59:44.396Z,50.28
2023-03-21T07:00:46.719Z,50.83
2023-03-21T07:01:48.887Z,51.11
2023-03-21T07:02:51.398Z,50.82
2023-03-21T07:03:56.677Z,50.71
2023-03-21T07:04:59.210Z,50.44
2023-03-21T07:06:13.633Z,49.77
2023-03-21T07:07:16.130Z,49.20
2023-03-21T07:08:18.625Z,50.02
2023-03-21T07:09:24.559Z,49.78
2023-03-21T07:10:27.080Z,49.89
2023-03-21T07:11:29.361Z,49.72
2023-03-21T07:12:34.164Z,49.35
2023-03-21T07:13:37.223Z,48.73
2023-03-21T07:14:39.237Z,48.53
2023-03-21T07:15:41.489Z,50.53
2023-03-21T07:16:43.430Z,49.48
2023-03-21T07:17:45.410Z,48.58
2023-03-21T07:18:47.554Z,48.18
2023-03-21T07:19:49.787Z,51.01
2023-03-21T07:20:52.844Z,48.03
2023-03-21T07:21:54.822Z,47.25
2023-03-21T07:22:57.533Z,47.13
2023-03-21T07:24:01.493Z,47.55
2023-03-21T07:25:05.438Z,47.49
2023-03-21T07:26:08.824Z,47.21
2023-03-21T07:27:10.659Z,46.99
2023-03-21T07:28:12.551Z,47.98
2023-03-21T07:29:15.409Z,47.72
2023-03-21T07:30:17.548Z,47.98
2023-03-21T07:31:19.893Z,47.69
2023-03-21T07:32:23.396Z,47.91
2023-03-21T07:33:26.080Z,48.44
2023-03-21T07:34:33.090Z,48.86
2023-03-21T07:35:38.197Z,49.13
2023-03-21T07:36:41.214Z,49.30
2023-03-21T07:37:43.641Z,49.53
2023-03-21T07:38:49.494Z,49.19
2023-03-21T07:39:53.939Z,49.32
2023-03-21T07:41:00.768Z,48.81
2023-03-21T07:42:04.510Z,48.45
2023-03-21T07:43:06.516Z,48.50
2023-03-21T07:44:08.577Z,48.86
2023-03-21T07:45:14.535Z,48.15
2023-03-21T07:46:16.589Z,48.45
2023-03-21T07:47:18.802Z,48.96
2023-03-21T07:48:22.773Z,49.15
2023-03-21T07:49:24.744Z,48.23
2023-03-21T07:50:26.687Z,46.93
2023-03-21T07:51:28.673Z,46.82
2023-03-21T07:52:31.328Z,46.14
2023-03-21T07:53:33.252Z,46.46
2023-03-21T07:54:35.365Z,45.76
2023-03-21T07:55:37.588Z,45.57
2023-03-21T07:56:39.612Z,45.38
2023-03-21T07:57:41.830Z,44.86
2023-03-21T07:58:43.890Z,45.43
2023-03-21T07:59:46.202Z,46.30
2023-03-21T08:00:49.107Z,45.12
2023-03-21T08:01:51.798Z,45.77
2023-03-21T08:02:58.563Z,45.40
2023-03-21T08:04:00.786Z,44.40
2023-03-21T08:05:04.121Z,45.16
2023-03-21T08:06:06.396Z,44.40
2023-03-21T08:07:09.102Z,43.93
2023-03-21T08:08:11.279Z,45.05
2023-03-21T08:09:13.188Z,47.48
2023-03-21T08:10:15.779Z,47.52
2023-03-21T08:11:18.126Z,44.38
2023-03-21T08:12:20.334Z,44.46
2023-03-21T08:13:23.016Z,45.15
2023-03-21T08:14:24.906Z,45.35
2023-03-21T08:15:26.824Z,46.04
2023-03-21T08:16:30.103Z,46.25
2023-03-21T08:17:32.356Z,43.87
2023-03-21T08:18:34.214Z,43.83
2023-03-21T08:19:37.447Z,44.67
2023-03-21T08:20:39.789Z,44.24
2023-03-21T08:21:41.714Z,43.36
2023-03-21T08:22:44.381Z,43.34
2023-03-21T08:23:46.191Z,42.12
2023-03-21T08:24:48.051Z,41.85
2023-03-21T08:25:54.471Z,42.61
2023-03-21T08:26:56.656Z,41.80
2023-03-21T08:27:58.828Z,40.44
2023-03-21T08:29:00.922Z,40.16
2023-03-21T08:30:03.554Z,40.48
2023-03-21T08:31:10.349Z,39.45
2023-03-21T08:32:12.277Z,39.87
2023-03-21T08:33:14.894Z,39.74
2023-03-21T08:34:18.179Z,39.66
2023-03-21T08:35:20.540Z,39.00
2023-03-21T08:36:23.554Z,39.99
2023-03-21T08:37:25.679Z,39.98
2023-03-21T08:38:33.510Z,40.51
2023-03-21T08:39:35.437Z,39.95
2023-03-21T08:40:37.332Z,40.28
2023-03-21T08:41:39.192Z,41.33
2023-03-21T08:42:42.107Z,41.83
2023-03-21T08:43:44.298Z,40.14
2023-03-21T08:44:46.211Z,42.12
2023-03-21T08:45:48.112Z,41.62
2023-03-21T08:46:50.122Z,40.89
2023-03-21T08:47:52.002Z,39.65
2023-03-21T08:48:54.801Z,40.39
2023-03-21T08:49:59.158Z,40.10
2023-03-21T08:51:01.396Z,39.78
2023-03-21T08:52:03.533Z,39.53
2023-03-21T08:53:05.573Z,38.36
2023-03-21T08:54:07.934Z,38.41
2023-03-21T08:55:10.571Z,38.58
2023-03-21T08:56:12.780Z,38.50
2023-03-21T08:57:15.033Z,38.23
2023-03-21T08:58:17.926Z,37.62
2023-03-21T08:59:20.381Z,37.98
2023-03-21T09:00:22.997Z,37.32
2023-03-21T09:01:24.879Z,37.40
2023-03-21T09:02:27.139Z,36.72
2023-03-21T09:03:30.377Z,37.66
2023-03-21T09:04:32.756Z,37.32
2023-03-21T09:05:36.690Z,38.36
2023-03-21T09:06:45.636Z,37.18
2023-03-21T09:07:49.631Z,36.72
2023-03-21T09:08:53.565Z,35.85
2023-03-21T09:10:14.792Z,35.52
2023-03-21T09:11:17.711Z,35.20
2023-03-21T09:12:19.808Z,35.89
2023-03-21T09:13:22.829Z,36.43
2023-03-21T09:14:28.793Z,35.12
2023-03-21T09:15:31.839Z,34.94
2023-03-21T09:16:34.631Z,34.90
2023-03-21T09:17:39.032Z,34.72
2023-03-21T09:18:55.545Z,34.43
2023-03-21T09:19:59.511Z,34.88
2023-03-21T09:21:02.083Z,35.90
2023-03-21T09:22:04.760Z,34.99
2023-03-21T09:23:06.921Z,35.39
2023-03-21T09:24:08.907Z,35.60
2023-03-21T09:25:11.383Z,34.08
2023-03-21T09:26:14.147Z,34.28
2023-03-21T09:27:18.144Z,33.84
2023-03-21T09:28:20.021Z,33.46
2023-03-21T09:29:23.260Z,32.61
2023-03-21T09:30:26.443Z,31.81
2023-03-21T09:31:28.962Z,32.07
2023-03-21T09:32:31.310Z,32.00
2023-03-21T09:33:33.274Z,32.04
2023-03-21T09:34:37.032Z,32.36
2023-03-21T09:35:39.173Z,32.61
2023-03-21T09:36:44.230Z,33.16
2023-03-21T09:37:47.845Z,34.03
2023-03-21T09:38:50.056Z,34.68
2023-03-21T09:39:52.202Z,34.53
2023-03-21T09:41:09.299Z,34.65
2023-03-21T09:42:37.934Z,34.58
2023-03-21T09:44:04.573Z,35.42
2023-03-21T09:45:39.166Z,34.65
2023-03-21T09:47:19.743Z,34.42
2023-03-21T09:48:56.653Z,33.89
2023-03-21T09:50:14.110Z,34.42
2023-03-21T09:51:19.370Z,34.64
2023-03-21T09:52:29.634Z,34.66
2023-03-21T09:53:41.437Z,34.45
2023-03-21T09:54:44.776Z,33.69
2023-03-21T09:55:47.227Z,35.02
2023-03-21T09:56:52.957Z,35.72
2023-03-21T09:58:14.465Z,34.82
2023-03-21T09:59:27.489Z,35.81
2023-03-21T10:00:36.443Z,35.32
2023-03-21T10:01:45.524Z,34.83
2023-03-21T10:02:56.897Z,34.94
2023-03-21T10:04:01.364Z,34.26
2023-03-21T10:05:21.517Z,33.68
2023-03-21T10:06:29.675Z,33.85
2023-03-21T10:07:38.991Z,32.66
2023-03-21T10:08:42.952Z,32.46
2023-03-21T10:09:47.131Z,32.29
2023-03-21T10:10:55.846Z,31.96
2023-03-21T10:12:03.235Z,31.41
2023-03-21T10:13:13.342Z,32.14
2023-03-21T10:14:27.064Z,32.22
2023-03-21T10:15:29.047Z,31.99
2023-03-21T10:16:56.901Z,33.25
2023-03-21T10:18:05.625Z,32.38
2023-03-21T10:19:13.868Z,32.80
2023-03-21T10:20:37.551Z,32.55
2023-03-21T10:22:03.452Z,32.31
2023-03-21T10:23:08.404Z,32.11
2023-03-21T10:24:13.869Z,31.44
2023-03-21T10:25:19.072Z,31.51
2023-03-21T10:26:23.546Z,31.42
2023-03-21T10:27:25.570Z,31.57
2023-03-21T10:28:42.401Z,31.49
2023-03-21T10:29:53.332Z,31.77
2023-03-21T10:31:08.081Z,31.62
2023-03-21T10:32:16.949Z,31.62
2023-03-21T10:33:24.361Z,31.44
2023-03-21T10:34:44.457Z,31.65
2023-03-21T10:35:51.464Z,32.45
2023-03-21T10:36:54.074Z,32.01
2023-03-21T10:37:55.921Z,31.28
2023-03-21T10:39:02.222Z,31.24
2023-03-21T10:40:06.796Z,30.70
2023-03-21T10:41:11.433Z,31.31
2023-03-21T10:42:33.867Z,31.29
2023-03-21T10:43:38.648Z,31.42
2023-03-21T10:44:46.972Z,31.71
2023-03-21T10:45:49.291Z,31.04
2023-03-21T10:46:52.907Z,30.60
2023-03-21T10:47:55.607Z,30.70
2023-03-21T10:48:57.754Z,30.47
2023-03-21T10:50:10.172Z,30.51
2023-03-21T10:51:19.069Z,29.70
2023-03-21T10:52:28.789Z,30.29
2023-03-21T10:53:36.340Z,29.83
2023-03-21T10:54:38.305Z,30.08
2023-03-21T10:55:42.040Z,29.52
2023-03-21T10:56:51.280Z,30.35
2023-03-21T10:57:58.775Z,30.80
2023-03-21T10:59:02.439Z,30.19
2023-03-21T11:00:15.938Z,29.72
2023-03-21T11:01:30.381Z,29.37
2023-03-21T11:02:37.810Z,29.30
2023-03-21T11:03:46.834Z,30.27
2023-03-21T11:04:49.041Z,29.95
2023-03-21T11:05:57.216Z,29.76
2023-03-21T11:07:04.083Z,30.17
2023-03-21T11:08:15.442Z,29.69
2023-03-21T11:09:19.748Z,29.66
2023-03-21T11:10:30.635Z,30.04
2023-03-21T11:11:39.967Z,29.12
2023-03-21T11:12:48.139Z,29.46
2023-03-21T11:13:59.015Z,29.83
2023-03-21T11:15:21.156Z,30.27
2023-03-21T11:16:30.003Z,30.32
2023-03-21T11:17:35.767Z,29.42
2023-03-21T11:18:43.379Z,29.38
2023-03-21T11:20:09.076Z,29.18
2023-03-21T11:21:13.461Z,29.01
2023-03-21T11:22:16.579Z,29.67
2023-03-21T11:23:20.921Z,30.19
2023-03-21T11:24:22.958Z,30.07
2023-03-21T11:25:38.101Z,30.09
2023-03-21T11:26:43.571Z,30.21
2023-03-21T11:27:51.697Z,29.27
2023-03-21T11:28:55.314Z,28.91
2023-03-21T11:30:01.643Z,28.94
2023-03-21T11:31:05.238Z,28.98
2023-03-21T11:32:13.882Z,28.64
2023-03-21T11:33:19.777Z,29.40
2023-03-21T11:34:30.602Z,29.07
2023-03-21T11:35:36.657Z,28.96
2023-03-21T11:36:39.219Z,28.29
2023-03-21T11:37:53.278Z,28.08
2023-03-21T11:39:02.711Z,28.80
2023-03-21T11:40:13.522Z,28.82
2023-03-21T11:41:29.387Z,29.55
2023-03-21T11:42:40.583Z,29.47
2023-03-21T11:43:52.612Z,30.31
2023-03-21T11:45:11.523Z,30.63
2023-03-21T11:46:14.922Z,29.46
2023-03-21T11:47:16.788Z,29.53
2023-03-21T11:48:18.731Z,28.84
2023-03-21T11:49:22.072Z,28.70
2023-03-21T11:50:33.793Z,28.65
2023-03-21T11:51:46.493Z,28.83
2023-03-21T11:53:04.979Z,28.60
2023-03-21T11:54:12.595Z,29.46
2023-03-21T11:55:33.007Z,29.69
2023-03-21T11:56:45.341Z,29.32
2023-03-21T11:58:23.009Z,29.20
2023-03-21T11:59:50.968Z,28.33
2023-03-21T12:01:26.626Z,27.92
2023-03-21T12:02:55.740Z,28.19
2023-03-21T12:04:18.656Z,27.96
2023-03-21T12:05:51.004Z,27.46
2023-03-21T12:06:55.348Z,27.33
2023-03-21T12:08:12.714Z,28.22
2023-03-21T12:09:27.277Z,28.56
2023-03-21T12:11:01.270Z,29.28
2023-03-21T12:12:39.674Z,29.33
2023-03-21T12:14:19.479Z,29.20
2023-03-21T12:15:33.295Z,30.58
2023-03-21T12:17:17.127Z,30.86
2023-03-21T12:18:32.646Z,30.99
2023-03-21T12:19:58.150Z,30.97
2023-03-21T12:21:28.435Z,31.75
2023-03-21T12:22:39.001Z,32.26
2023-03-21T12:23:55.875Z,32.62
2023-03-21T12:25:06.361Z,33.30
2023-03-21T12:26:10.608Z,33.49
2023-03-21T12:27:32.472Z,33.96
2023-03-21T12:29:02.265Z,33.93
2023-03-21T12:30:33.828Z,33.87
2023-03-21T12:32:06.588Z,32.90
2023-03-21T12:33:08.395Z,33.07
2023-03-21T12:34:37.254Z,33.54
2023-03-21T12:36:07.257Z,33.99
2023-03-21T12:37:32.074Z,34.24
2023-03-21T12:38:36.541Z,34.78
2023-03-21T12:39:43.778Z,35.59
2023-03-21T12:40:58.084Z,36.10
2023-03-21T12:42:18.586Z,36.11
2023-03-21T12:43:40.020Z,36.31
2023-03-21T12:45:11.544Z,36.78
2023-03-21T12:46:44.874Z,36.77
2023-03-21T12:47:56.354Z,36.31
2023-03-21T12:49:02.941Z,35.61
2023-03-21T12:50:27.526Z,36.04
2023-03-21T12:51:37.209Z,36.11
2023-03-21T12:52:42.309Z,36.32
2023-03-21T12:53:53.813Z,36.65
2023-03-21T12:55:21.653Z,35.95
2023-03-21T12:56:51.118Z,35.80
2023-03-21T12:58:02.034Z,35.43
2023-03-21T12:59:26.936Z,35.28
2023-03-21T13:00:40.897Z,35.52
2023-03-21T13:01:45.501Z,35.41
2023-03-21T13:02:50.644Z,35.86
2023-03-21T13:04:21.034Z,36.20
2023-03-21T13:05:38.268Z,37.08
2023-03-21T13:06:41.246Z,37.28
2023-03-21T13:07:48.757Z,37.70
2023-03-21T13:09:10.255Z,38.09
2023-03-21T13:10:21.291Z,38.51
2023-03-21T13:11:26.314Z,39.16
2023-03-21T13:12:57.387Z,39.19
2023-03-21T13:14:05.993Z,38.98
2023-03-21T13:15:30.419Z,38.93
2023-03-21T13:17:02.752Z,38.90
2023-03-21T13:18:23.206Z,38.50
2023-03-21T13:19:42.510Z,37.73
2023-03-21T13:20:50.676Z,36.97
2023-03-21T13:22:11.258Z,36.20
2023-03-21T13:23:13.983Z,35.83
2023-03-21T13:24:43.799Z,35.38
2023-03-21T13:25:49.135Z,35.41
2023-03-21T13:27:14.154Z,33.47
2023-03-21T13:28:21.716Z,33.63
2023-03-21T13:29:44.326Z,33.79
2023-03-21T13:30:48.774Z,34.20
2023-03-21T13:31:56.689Z,34.24
2023-03-21T13:33:08.302Z,33.74
2023-03-21T13:34:10.610Z,33.17
2023-03-21T13:35:17.353Z,33.03
2023-03-21T13:36:29.144Z,33.29
2023-03-21T13:37:35.234Z,33.23
2023-03-21T13:38:40.208Z,34.09
2023-03-21T13:39:47.154Z,32.08
2023-03-21T13:40:52.166Z,32.63
2023-03-21T13:41:54.742Z,33.67
2023-03-21T13:43:00.550Z,33.77
2023-03-21T13:44:02.350Z,33.45
2023-03-21T13:45:11.043Z,33.57
2023-03-21T13:46:54.883Z,33.15
2023-03-21T13:48:18.466Z,33.16
2023-03-21T13:49:33.204Z,32.96
2023-03-21T13:50:51.088Z,33.38
2023-03-21T13:51:56.788Z,34.10
2023-03-21T13:53:18.211Z,34.44
2023-03-21T13:54:35.021Z,34.44
2023-03-21T13:55:42.480Z,34.99
2023-03-21T13:56:47.266Z,35.89
2023-03-21T13:57:49.150Z,36.31
2023-03-21T13:58:54.765Z,36.08
2023-03-21T14:00:19.591Z,35.96
2023-03-21T14:01:30.583Z,36.75
2023-03-21T14:02:34.508Z,36.59
2023-03-21T14:03:36.425Z,35.91
2023-03-21T14:04:42.608Z,35.80
2023-03-21T14:05:50.752Z,36.00
2023-03-21T14:07:12.097Z,35.92
2023-03-21T14:08:27.748Z,35.35
2023-03-21T14:09:44.300Z,34.70
2023-03-21T14:10:49.264Z,33.45
2023-03-21T14:11:54.729Z,33.63
2023-03-21T14:12:59.570Z,33.44
2023-03-21T14:14:03.423Z,33.35
2023-03-21T14:15:18.336Z,33.68
2023-03-21T14:16:22.097Z,32.97
2023-03-21T14:17:26.841Z,32.76
2023-03-21T14:18:52.420Z,33.80
2023-03-21T14:19:56.061Z,33.59
2023-03-21T14:21:01.315Z,33.62
2023-03-21T14:22:05.187Z,33.73
2023-03-21T14:23:13.166Z,33.63
2023-03-21T14:24:17.362Z,33.47
2023-03-21T14:25:23.166Z,34.40
2023-03-21T14:26:27.442Z,34.01
2023-03-21T14:27:32.813Z,33.83
2023-03-21T14:28:36.192Z,33.61
2023-03-21T14:29:39.611Z,34.09
2023-03-21T14:30:43.005Z,34.39
2023-03-21T14:31:47.344Z,34.38
2023-03-21T14:32:49.310Z,33.45
2023-03-21T14:33:54.165Z,33.20
2023-03-21T14:34:59.523Z,32.62
2023-03-21T14:36:08.901Z,32.45
2023-03-21T14:37:11.540Z,32.85